06AR weather

Bondair Airport
Higden, Arkansas, United States

Public forecast

Using degrees Fahrenheit for public forecast. Weather courtesy of forecast.io.

Closest aviation weather report (METAR) to Bondair Airport

Closest report is Clinton Municipal Airport, 13.4 nm (24.8 km) WNW. Retrieved 2020/07/16 04:15 UTC (42 seconds ago):

KCCA 160415Z AUTO 00000KT 6SM BR BKN049 BKN055 26/25 A2997 RMK AO2

Closest aviation forecast (TAF) to Bondair Airport

Closest forecast is Little Rock Air Force Base, 37.7 nm (69.9 km) S. Retrieved 2020-07-16 23:03 UTC (0 seconds ago):

TAF KLRF 152300Z 1523/1705 22009KT 9999 FEW080 BKN140 BKN200 QNH2988INS BECMG 1604/1605 23008KT 9999 FEW050 SCT150 QNH2992INS BECMG 1613/1614 21009KT 9999 SCT050 BKN080 BKN200 QNH2996INS BECMG 1618/1619 24009KT 9999 FEW050 SCT080 SCT200 QNH2994INS BECMG 1700/1701 13003KT 9999 SCT050 BKN075 BKN180 QNH2995INS TX38/1621Z TN25/1609Z